sensor_id;sensor_type;location;lat;lon;timestamp;temperature;humidity
44695;DHT22;32845;59.422;17.930;2023-04-16T00:00:42;2.00;99.90
44695;DHT22;32845;59.422;17.930;2023-04-16T00:05:13;2.00;99.90
44695;DHT22;32845;59.422;17.930;2023-04-16T00:09:44;2.00;99.90
44695;DHT22;32845;59.422;17.930;2023-04-16T00:14:15;1.90;99.90
44695;DHT22;32845;59.422;17.930;2023-04-16T00:18:46;1.90;99.90
44695;DHT22;32845;59.422;17.930;2023-04-16T00:23:17;1.80;99.90
44695;DHT22;32845;59.422;17.930;2023-04-16T00:27:47;1.80;99.90
44695;DHT22;32845;59.422;17.930;2023-04-16T00:32:18;1.70;99.90
44695;DHT22;32845;59.422;17.930;2023-04-16T00:36:49;1.70;99.90
44695;DHT22;32845;59.422;17.930;2023-04-16T00:41:19;1.60;99.90
44695;DHT22;32845;59.422;17.930;2023-04-16T00:45:52;1.50;99.90
44695;DHT22;32845;59.422;17.930;2023-04-16T00:50:23;1.50;99.90
44695;DHT22;32845;59.422;17.930;2023-04-16T00:54:53;1.40;99.90
44695;DHT22;32845;59.422;17.930;2023-04-16T00:59:26;1.40;99.90
44695;DHT22;32845;59.422;17.930;2023-04-16T01:03:56;1.30;99.90
44695;DHT22;32845;59.422;17.930;2023-04-16T01:08:27;1.30;99.90
44695;DHT22;32845;59.422;17.930;2023-04-16T01:12:58;1.20;99.90
44695;DHT22;32845;59.422;17.930;2023-04-16T01:17:28;1.20;99.90
44695;DHT22;32845;59.422;17.930;2023-04-16T01:21:59;1.20;99.90
44695;DHT22;32845;59.422;17.930;2023-04-16T01:26:30;1.10;99.90
44695;DHT22;32845;59.422;17.930;2023-04-16T01:31:01;1.00;99.90
44695;DHT22;32845;59.422;17.930;2023-04-16T01:35:31;1.00;99.90
44695;DHT22;32845;59.422;17.930;2023-04-16T01:40:02;1.00;99.90
44695;DHT22;32845;59.422;17.930;2023-04-16T01:44:33;0.90;99.90
44695;DHT22;32845;59.422;17.930;2023-04-16T01:49:04;0.90;99.90
44695;DHT22;32845;59.422;17.930;2023-04-16T01:53:36;0.80;99.90
44695;DHT22;32845;59.422;17.930;2023-04-16T01:58:07;0.80;99.90
44695;DHT22;32845;59.422;17.930;2023-04-16T02:02:40;0.80;99.90
44695;DHT22;32845;59.422;17.930;2023-04-16T02:07:11;0.70;99.90
44695;DHT22;32845;59.422;17.930;2023-04-16T02:11:42;0.70;99.90
44695;DHT22;32845;59.422;17.930;2023-04-16T02:16:12;0.60;99.90
44695;DHT22;32845;59.422;17.930;2023-04-16T02:20:45;0.60;99.90
44695;DHT22;32845;59.422;17.930;2023-04-16T02:25:16;0.60;99.90
44695;DHT22;32845;59.422;17.930;2023-04-16T02:29:47;0.60;99.90
44695;DHT22;32845;59.422;17.930;2023-04-16T02:34:17;0.60;99.90
44695;DHT22;32845;59.422;17.930;2023-04-16T02:38:48;0.60;99.90
44695;DHT22;32845;59.422;17.930;2023-04-16T02:43:19;0.50;99.90
44695;DHT22;32845;59.422;17.930;2023-04-16T02:47:50;0.50;99.90
44695;DHT22;32845;59.422;17.930;2023-04-16T02:52:22;0.50;99.90
44695;DHT22;32845;59.422;17.930;2023-04-16T02:56:53;0.50;99.90
44695;DHT22;32845;59.422;17.930;2023-04-16T03:01:23;0.50;99.90
44695;DHT22;32845;59.422;17.930;2023-04-16T03:05:54;0.50;99.90
44695;DHT22;32845;59.422;17.930;2023-04-16T03:10:25;0.40;99.90
44695;DHT22;32845;59.422;17.930;2023-04-16T03:14:56;0.40;99.90
44695;DHT22;32845;59.422;17.930;2023-04-16T03:19:26;0.40;99.90
44695;DHT22;32845;59.422;17.930;2023-04-16T03:23:57;0.40;99.90
44695;DHT22;32845;59.422;17.930;2023-04-16T03:28:28;0.30;99.90
44695;DHT22;32845;59.422;17.930;2023-04-16T03:32:58;0.30;99.90
44695;DHT22;32845;59.422;17.930;2023-04-16T03:37:29;0.30;99.90
44695;DHT22;32845;59.422;17.930;2023-04-16T03:42:00;0.30;99.90
44695;DHT22;32845;59.422;17.930;2023-04-16T03:46:31;0.30;99.90
44695;DHT22;32845;59.422;17.930;2023-04-16T03:51:02;0.30;99.90
44695;DHT22;32845;59.422;17.930;2023-04-16T03:55:34;0.20;99.90
44695;DHT22;32845;59.422;17.930;2023-04-16T04:00:05;0.20;99.90
44695;DHT22;32845;59.422;17.930;2023-04-16T04:04:36;0.20;99.90
44695;DHT22;32845;59.422;17.930;2023-04-16T04:09:07;0.20;99.90
44695;DHT22;32845;59.422;17.930;2023-04-16T04:13:38;0.20;99.90
44695;DHT22;32845;59.422;17.930;2023-04-16T04:18:08;0.20;99.90
44695;DHT22;32845;59.422;17.930;2023-04-16T04:22:39;0.20;99.90
44695;DHT22;32845;59.422;17.930;2023-04-16T04:27:10;0.30;99.90
44695;DHT22;32845;59.422;17.930;2023-04-16T04:31:41;0.30;99.90
44695;DHT22;32845;59.422;17.930;2023-04-16T04:36:11;0.30;99.90
44695;DHT22;32845;59.422;17.930;2023-04-16T04:40:42;0.30;99.90
44695;DHT22;32845;59.422;17.930;2023-04-16T04:45:12;0.40;99.90
44695;DHT22;32845;59.422;17.930;2023-04-16T04:49:43;0.40;99.90
44695;DHT22;32845;59.422;17.930;2023-04-16T04:54:14;0.50;99.90
44695;DHT22;32845;59.422;17.930;2023-04-16T04:58:45;0.50;99.90
44695;DHT22;32845;59.422;17.930;2023-04-16T05:03:19;0.60;99.90
44695;DHT22;32845;59.422;17.930;2023-04-16T05:07:50;0.70;99.90
44695;DHT22;32845;59.422;17.930;2023-04-16T05:12:21;0.70;99.90
44695;DHT22;32845;59.422;17.930;2023-04-16T05:16:52;0.80;99.90
44695;DHT22;32845;59.422;17.930;2023-04-16T05:21:24;0.90;99.90
44695;DHT22;32845;59.422;17.930;2023-04-16T05:25:55;1.00;99.90
44695;DHT22;32845;59.422;17.930;2023-04-16T05:30:26;1.10;99.90
44695;DHT22;32845;59.422;17.930;2023-04-16T05:34:57;1.20;99.90
44695;DHT22;32845;59.422;17.930;2023-04-16T05:39:28;1.20;99.90
44695;DHT22;32845;59.422;17.930;2023-04-16T05:43:58;1.40;99.90
44695;DHT22;32845;59.422;17.930;2023-04-16T05:48:29;1.40;99.90
44695;DHT22;32845;59.422;17.930;2023-04-16T05:53:02;1.60;99.90
44695;DHT22;32845;59.422;17.930;2023-04-16T05:57:33;1.70;99.90
44695;DHT22;32845;59.422;17.930;2023-04-16T06:02:04;1.80;99.90
44695;DHT22;32845;59.422;17.930;2023-04-16T06:06:35;1.90;99.90
44695;DHT22;32845;59.422;17.930;2023-04-16T06:11:06;2.00;99.90
44695;DHT22;32845;59.422;17.930;2023-04-16T06:15:37;2.10;99.90
44695;DHT22;32845;59.422;17.930;2023-04-16T06:20:08;2.20;99.90
44695;DHT22;32845;59.422;17.930;2023-04-16T06:24:39;2.40;99.90
44695;DHT22;32845;59.422;17.930;2023-04-16T06:29:10;2.50;99.90
44695;DHT22;32845;59.422;17.930;2023-04-16T06:33:41;2.70;99.90
44695;DHT22;32845;59.422;17.930;2023-04-16T06:38:11;2.80;99.90
44695;DHT22;32845;59.422;17.930;2023-04-16T06:42:42;3.00;99.90
44695;DHT22;32845;59.422;17.930;2023-04-16T06:47:13;3.10;99.90
44695;DHT22;32845;59.422;17.930;2023-04-16T06:51:44;3.30;99.90
44695;DHT22;32845;59.422;17.930;2023-04-16T06:56:14;3.40;99.90
44695;DHT22;32845;59.422;17.930;2023-04-16T07:00:45;3.50;99.90
44695;DHT22;32845;59.422;17.930;2023-04-16T07:05:16;3.70;99.90
44695;DHT22;32845;59.422;17.930;2023-04-16T07:09:47;3.80;99.90
44695;DHT22;32845;59.422;17.930;2023-04-16T07:14:17;4.00;99.90
44695;DHT22;32845;59.422;17.930;2023-04-16T07:18:48;4.10;99.90
44695;DHT22;32845;59.422;17.930;2023-04-16T07:23:19;4.30;99.90
44695;DHT22;32845;59.422;17.930;2023-04-16T07:27:50;4.40;99.90
44695;DHT22;32845;59.422;17.930;2023-04-16T07:32:21;4.70;99.90
44695;DHT22;32845;59.422;17.930;2023-04-16T07:36:52;4.90;99.90
44695;DHT22;32845;59.422;17.930;2023-04-16T07:41:22;5.00;99.90
44695;DHT22;32845;59.422;17.930;2023-04-16T07:45:53;5.10;99.90
44695;DHT22;32845;59.422;17.930;2023-04-16T07:50:24;5.30;99.90
44695;DHT22;32845;59.422;17.930;2023-04-16T07:54:55;5.30;99.90
44695;DHT22;32845;59.422;17.930;2023-04-16T07:59:25;5.50;99.90
44695;DHT22;32845;59.422;17.930;2023-04-16T08:03:56;5.60;99.90
44695;DHT22;32845;59.422;17.930;2023-04-16T08:08:27;5.80;99.90
44695;DHT22;32845;59.422;17.930;2023-04-16T08:13:02;6.00;99.90
44695;DHT22;32845;59.422;17.930;2023-04-16T08:17:32;6.20;99.90
44695;DHT22;32845;59.422;17.930;2023-04-16T08:22:04;6.40;99.90
44695;DHT22;32845;59.422;17.930;2023-04-16T08:26:35;6.50;99.90
44695;DHT22;32845;59.422;17.930;2023-04-16T08:31:05;6.70;99.90
44695;DHT22;32845;59.422;17.930;2023-04-16T08:35:36;6.90;99.90
44695;DHT22;32845;59.422;17.930;2023-04-16T08:40:07;7.10;99.90
44695;DHT22;32845;59.422;17.930;2023-04-16T08:44:43;7.30;99.90
44695;DHT22;32845;59.422;17.930;2023-04-16T08:49:16;7.50;99.90
44695;DHT22;32845;59.422;17.930;2023-04-16T08:53:48;7.60;99.90
44695;DHT22;32845;59.422;17.930;2023-04-16T08:58:24;7.80;99.90
44695;DHT22;32845;59.422;17.930;2023-04-16T09:02:59;8.00;99.90
44695;DHT22;32845;59.422;17.930;2023-04-16T09:07:30;8.20;99.90
44695;DHT22;32845;59.422;17.930;2023-04-16T09:12:01;8.40;99.90
44695;DHT22;32845;59.422;17.930;2023-04-16T09:16:33;8.70;99.90
44695;DHT22;32845;59.422;17.930;2023-04-16T09:21:04;9.10;99.90
44695;DHT22;32845;59.422;17.930;2023-04-16T09:25:37;9.30;98.10
44695;DHT22;32845;59.422;17.930;2023-04-16T09:30:22;9.50;97.20
44695;DHT22;32845;59.422;17.930;2023-04-16T09:34:57;9.80;96.90
44695;DHT22;32845;59.422;17.930;2023-04-16T09:39:28;10.00;97.00
44695;DHT22;32845;59.422;17.930;2023-04-16T09:44:01;10.30;96.80
44695;DHT22;32845;59.422;17.930;2023-04-16T09:48:33;10.50;94.70
44695;DHT22;32845;59.422;17.930;2023-04-16T09:53:04;10.70;94.60
44695;DHT22;32845;59.422;17.930;2023-04-16T09:57:36;10.90;92.00
44695;DHT22;32845;59.422;17.930;2023-04-16T10:02:07;11.10;90.10
44695;DHT22;32845;59.422;17.930;2023-04-16T10:06:39;11.30;92.40
44695;DHT22;32845;59.422;17.930;2023-04-16T10:11:10;11.50;91.20
44695;DHT22;32845;59.422;17.930;2023-04-16T10:15:41;11.70;90.30
44695;DHT22;32845;59.422;17.930;2023-04-16T10:20:12;11.90;89.10
44695;DHT22;32845;59.422;17.930;2023-04-16T10:24:44;12.10;88.70
44695;DHT22;32845;59.422;17.930;2023-04-16T10:29:16;12.30;86.80
44695;DHT22;32845;59.422;17.930;2023-04-16T10:33:47;12.60;84.60
44695;DHT22;32845;59.422;17.930;2023-04-16T10:38:25;12.80;82.60
44695;DHT22;32845;59.422;17.930;2023-04-16T10:42:57;13.10;81.10
44695;DHT22;32845;59.422;17.930;2023-04-16T10:47:28;13.40;76.80
44695;DHT22;32845;59.422;17.930;2023-04-16T10:52:00;13.50;76.10
44695;DHT22;32845;59.422;17.930;2023-04-16T10:56:34;13.90;81.30
44695;DHT22;32845;59.422;17.930;2023-04-16T11:01:12;14.30;79.30
44695;DHT22;32845;59.422;17.930;2023-04-16T11:05:44;14.80;75.80
44695;DHT22;32845;59.422;17.930;2023-04-16T11:10:16;15.20;76.20
44695;DHT22;32845;59.422;17.930;2023-04-16T11:14:49;15.70;67.90
44695;DHT22;32845;59.422;17.930;2023-04-16T11:19:20;16.20;74.70
44695;DHT22;32845;59.422;17.930;2023-04-16T11:23:52;16.80;72.60
44695;DHT22;32845;59.422;17.930;2023-04-16T11:28:33;17.40;70.40
44695;DHT22;32845;59.422;17.930;2023-04-16T11:33:04;19.50;65.40
44695;DHT22;32845;59.422;17.930;2023-04-16T11:37:36;22.10;63.30
44695;DHT22;32845;59.422;17.930;2023-04-16T11:42:07;24.00;55.10
44695;DHT22;32845;59.422;17.930;2023-04-16T11:46:38;25.50;52.20
44695;DHT22;32845;59.422;17.930;2023-04-16T11:51:10;26.20;44.30
44695;DHT22;32845;59.422;17.930;2023-04-16T11:55:43;26.10;42.50
44695;DHT22;32845;59.422;17.930;2023-04-16T12:00:15;26.40;42.70
44695;DHT22;32845;59.422;17.930;2023-04-16T12:04:46;26.80;45.90
44695;DHT22;32845;59.422;17.930;2023-04-16T12:09:24;27.00;42.40
44695;DHT22;32845;59.422;17.930;2023-04-16T12:14:11;27.00;44.00
44695;DHT22;32845;59.422;17.930;2023-04-16T12:18:58;26.30;41.60
44695;DHT22;32845;59.422;17.930;2023-04-16T12:23:32;25.90;43.00
44695;DHT22;32845;59.422;17.930;2023-04-16T12:28:03;25.40;44.20
44695;DHT22;32845;59.422;17.930;2023-04-16T12:32:34;24.90;48.90
44695;DHT22;32845;59.422;17.930;2023-04-16T12:37:07;24.50;49.30
44695;DHT22;32845;59.422;17.930;2023-04-16T12:41:42;24.20;45.20
44695;DHT22;32845;59.422;17.930;2023-04-16T12:46:14;23.80;46.60
44695;DHT22;32845;59.422;17.930;2023-04-16T12:50:45;23.70;49.40
44695;DHT22;32845;59.422;17.930;2023-04-16T12:55:16;23.60;45.30
44695;DHT22;32845;59.422;17.930;2023-04-16T12:59:46;23.20;48.80
44695;DHT22;32845;59.422;17.930;2023-04-16T13:04:17;22.60;45.80
44695;DHT22;32845;59.422;17.930;2023-04-16T13:08:50;21.80;48.10
44695;DHT22;32845;59.422;17.930;2023-04-16T13:13:21;21.60;46.50
44695;DHT22;32845;59.422;17.930;2023-04-16T13:17:52;21.40;47.60
44695;DHT22;32845;59.422;17.930;2023-04-16T13:22:23;21.30;49.00
44695;DHT22;32845;59.422;17.930;2023-04-16T13:26:53;21.00;47.50
44695;DHT22;32845;59.422;17.930;2023-04-16T13:31:25;20.70;50.60
44695;DHT22;32845;59.422;17.930;2023-04-16T13:35:56;19.60;48.80
44695;DHT22;32845;59.422;17.930;2023-04-16T13:40:27;19.00;53.80
44695;DHT22;32845;59.422;17.930;2023-04-16T13:44:58;18.90;50.50
44695;DHT22;32845;59.422;17.930;2023-04-16T13:49:28;18.50;52.60
44695;DHT22;32845;59.422;17.930;2023-04-16T13:54:00;18.20;52.80
44695;DHT22;32845;59.422;17.930;2023-04-16T13:58:31;18.00;53.20
44695;DHT22;32845;59.422;17.930;2023-04-16T14:03:01;17.90;52.50
44695;DHT22;32845;59.422;17.930;2023-04-16T14:07:32;17.50;52.90
44695;DHT22;32845;59.422;17.930;2023-04-16T14:12:03;17.30;54.40
44695;DHT22;32845;59.422;17.930;2023-04-16T14:16:34;17.10;55.70
44695;DHT22;32845;59.422;17.930;2023-04-16T14:21:05;16.80;55.40
44695;DHT22;32845;59.422;17.930;2023-04-16T14:25:36;16.10;55.10
44695;DHT22;32845;59.422;17.930;2023-04-16T14:30:07;15.80;56.80
44695;DHT22;32845;59.422;17.930;2023-04-16T14:34:38;15.60;58.40
44695;DHT22;32845;59.422;17.930;2023-04-16T14:39:09;15.40;56.60
44695;DHT22;32845;59.422;17.930;2023-04-16T14:43:40;14.90;58.40
44695;DHT22;32845;59.422;17.930;2023-04-16T14:48:11;14.70;57.60
44695;DHT22;32845;59.422;17.930;2023-04-16T14:52:42;14.30;58.70
44695;DHT22;32845;59.422;17.930;2023-04-16T14:57:12;14.10;59.40
44695;DHT22;32845;59.422;17.930;2023-04-16T15:01:44;13.90;60.60
44695;DHT22;32845;59.422;17.930;2023-04-16T15:06:15;13.70;60.30
44695;DHT22;32845;59.422;17.930;2023-04-16T15:10:46;13.70;60.70
44695;DHT22;32845;59.422;17.930;2023-04-16T15:15:17;13.70;61.60
44695;DHT22;32845;59.422;17.930;2023-04-16T15:19:47;13.60;61.00
44695;DHT22;32845;59.422;17.930;2023-04-16T15:24:18;13.30;60.90
44695;DHT22;32845;59.422;17.930;2023-04-16T15:28:49;13.30;62.20
44695;DHT22;32845;59.422;17.930;2023-04-16T15:33:20;13.10;62.00
44695;DHT22;32845;59.422;17.930;2023-04-16T15:37:51;12.80;61.40
44695;DHT22;32845;59.422;17.930;2023-04-16T15:42:22;12.90;62.80
44695;DHT22;32845;59.422;17.930;2023-04-16T15:46:53;12.80;63.30
44695;DHT22;32845;59.422;17.930;2023-04-16T15:51:24;12.80;65.00
44695;DHT22;32845;59.422;17.930;2023-04-16T15:55:56;12.70;64.90
44695;DHT22;32845;59.422;17.930;2023-04-16T16:00:26;12.50;63.90
44695;DHT22;32845;59.422;17.930;2023-04-16T16:04:57;12.10;64.40
44695;DHT22;32845;59.422;17.930;2023-04-16T16:09:29;11.80;65.80
44695;DHT22;32845;59.422;17.930;2023-04-16T16:14:00;11.70;66.20
44695;DHT22;32845;59.422;17.930;2023-04-16T16:18:31;11.80;66.90
44695;DHT22;32845;59.422;17.930;2023-04-16T16:23:02;11.70;66.90
44695;DHT22;32845;59.422;17.930;2023-04-16T16:27:32;11.40;66.00
44695;DHT22;32845;59.422;17.930;2023-04-16T16:32:03;11.20;66.90
44695;DHT22;32845;59.422;17.930;2023-04-16T16:36:34;11.10;67.10
44695;DHT22;32845;59.422;17.930;2023-04-16T16:41:07;10.90;67.90
44695;DHT22;32845;59.422;17.930;2023-04-16T16:45:38;10.90;67.50
44695;DHT22;32845;59.422;17.930;2023-04-16T16:50:09;10.70;67.10
44695;DHT22;32845;59.422;17.930;2023-04-16T16:54:40;10.50;68.10
44695;DHT22;32845;59.422;17.930;2023-04-16T16:59:12;10.60;68.10
44695;DHT22;32845;59.422;17.930;2023-04-16T17:03:42;10.50;67.90
44695;DHT22;32845;59.422;17.930;2023-04-16T17:08:13;10.30;68.60
44695;DHT22;32845;59.422;17.930;2023-04-16T17:12:46;10.20;69.40
44695;DHT22;32845;59.422;17.930;2023-04-16T17:17:16;9.90;70.10
44695;DHT22;32845;59.422;17.930;2023-04-16T17:21:49;9.80;71.50
44695;DHT22;32845;59.422;17.930;2023-04-16T17:26:20;9.50;72.30
44695;DHT22;32845;59.422;17.930;2023-04-16T17:30:52;9.30;73.10
44695;DHT22;32845;59.422;17.930;2023-04-16T17:35:23;9.10;73.80
44695;DHT22;32845;59.422;17.930;2023-04-16T17:39:54;9.00;74.90
44695;DHT22;32845;59.422;17.930;2023-04-16T17:44:24;8.80;75.40
44695;DHT22;32845;59.422;17.930;2023-04-16T17:48:56;8.60;75.60
44695;DHT22;32845;59.422;17.930;2023-04-16T17:53:27;8.40;76.00
44695;DHT22;32845;59.422;17.930;2023-04-16T17:57:58;8.30;76.40
44695;DHT22;32845;59.422;17.930;2023-04-16T18:02:30;8.10;77.10
44695;DHT22;32845;59.422;17.930;2023-04-16T18:07:00;7.90;79.40
44695;DHT22;32845;59.422;17.930;2023-04-16T18:11:31;7.60;78.40
44695;DHT22;32845;59.422;17.930;2023-04-16T18:16:02;7.40;80.10
44695;DHT22;32845;59.422;17.930;2023-04-16T18:20:33;7.20;80.90
44695;DHT22;32845;59.422;17.930;2023-04-16T18:25:04;7.00;81.00
44695;DHT22;32845;59.422;17.930;2023-04-16T18:29:36;6.90;81.30
44695;DHT22;32845;59.422;17.930;2023-04-16T18:34:06;6.90;81.70
44695;DHT22;32845;59.422;17.930;2023-04-16T18:38:37;6.70;80.90
44695;DHT22;32845;59.422;17.930;2023-04-16T18:43:08;6.70;80.50
44695;DHT22;32845;59.422;17.930;2023-04-16T18:47:39;6.50;81.00
44695;DHT22;32845;59.422;17.930;2023-04-16T18:52:10;6.40;81.70
44695;DHT22;32845;59.422;17.930;2023-04-16T18:56:41;6.10;82.20
44695;DHT22;32845;59.422;17.930;2023-04-16T19:01:12;6.00;83.20
44695;DHT22;32845;59.422;17.930;2023-04-16T19:05:43;5.80;85.60
44695;DHT22;32845;59.422;17.930;2023-04-16T19:10:14;5.50;86.80
44695;DHT22;32845;59.422;17.930;2023-04-16T19:14:44;5.30;87.40
44695;DHT22;32845;59.422;17.930;2023-04-16T19:19:15;5.10;88.30
44695;DHT22;32845;59.422;17.930;2023-04-16T19:23:46;4.80;89.10
44695;DHT22;32845;59.422;17.930;2023-04-16T19:28:18;4.60;90.10
44695;DHT22;32845;59.422;17.930;2023-04-16T19:32:49;4.50;90.20
44695;DHT22;32845;59.422;17.930;2023-04-16T19:37:19;4.30;90.70
44695;DHT22;32845;59.422;17.930;2023-04-16T19:41:50;4.10;91.60
44695;DHT22;32845;59.422;17.930;2023-04-16T19:46:21;4.00;92.10
44695;DHT22;32845;59.422;17.930;2023-04-16T19:50:51;4.00;92.20
44695;DHT22;32845;59.422;17.930;2023-04-16T19:55:22;3.90;91.80
44695;DHT22;32845;59.422;17.930;2023-04-16T19:59:53;3.70;92.60
44695;DHT22;32845;59.422;17.930;2023-04-16T20:04:23;3.60;92.80
44695;DHT22;32845;59.422;17.930;2023-04-16T20:08:55;3.50;93.50
44695;DHT22;32845;59.422;17.930;2023-04-16T20:13:26;3.40;93.50
44695;DHT22;32845;59.422;17.930;2023-04-16T20:17:57;3.40;93.70
44695;DHT22;32845;59.422;17.930;2023-04-16T20:22:27;3.30;93.50
44695;DHT22;32845;59.422;17.930;2023-04-16T20:26:58;3.20;94.10
44695;DHT22;32845;59.422;17.930;2023-04-16T20:31:29;3.20;94.00
44695;DHT22;32845;59.422;17.930;2023-04-16T20:36:00;3.30;94.60
44695;DHT22;32845;59.422;17.930;2023-04-16T20:40:31;3.40;94.40
44695;DHT22;32845;59.422;17.930;2023-04-16T20:45:01;3.50;94.00
44695;DHT22;32845;59.422;17.930;2023-04-16T20:49:32;3.60;93.70
44695;DHT22;32845;59.422;17.930;2023-04-16T20:54:04;3.70;93.70
44695;DHT22;32845;59.422;17.930;2023-04-16T20:58:34;3.70;93.20
44695;DHT22;32845;59.422;17.930;2023-04-16T21:03:05;3.70;93.40
44695;DHT22;32845;59.422;17.930;2023-04-16T21:07:36;3.70;93.70
44695;DHT22;32845;59.422;17.930;2023-04-16T21:12:07;3.70;93.40
44695;DHT22;32845;59.422;17.930;2023-04-16T21:16:37;3.70;93.10
44695;DHT22;32845;59.422;17.930;2023-04-16T21:21:08;3.60;93.20
44695;DHT22;32845;59.422;17.930;2023-04-16T21:25:39;3.60;93.20
44695;DHT22;32845;59.422;17.930;2023-04-16T21:30:10;3.60;93.00
44695;DHT22;32845;59.422;17.930;2023-04-16T21:34:41;3.50;93.20
44695;DHT22;32845;59.422;17.930;2023-04-16T21:39:11;3.50;93.10
44695;DHT22;32845;59.422;17.930;2023-04-16T21:43:43;3.40;93.00
44695;DHT22;32845;59.422;17.930;2023-04-16T21:48:14;3.30;93.30
44695;DHT22;32845;59.422;17.930;2023-04-16T21:52:44;3.30;93.40
44695;DHT22;32845;59.422;17.930;2023-04-16T21:57:16;3.20;93.70
44695;DHT22;32845;59.422;17.930;2023-04-16T22:01:47;3.10;93.90
44695;DHT22;32845;59.422;17.930;2023-04-16T22:06:17;3.10;94.10
44695;DHT22;32845;59.422;17.930;2023-04-16T22:10:48;3.10;94.00
44695;DHT22;32845;59.422;17.930;2023-04-16T22:15:19;3.00;93.90
44695;DHT22;32845;59.422;17.930;2023-04-16T22:19:50;3.00;94.00
44695;DHT22;32845;59.422;17.930;2023-04-16T22:24:22;2.80;94.30
44695;DHT22;32845;59.422;17.930;2023-04-16T22:28:53;2.80;94.50
44695;DHT22;32845;59.422;17.930;2023-04-16T22:33:24;2.80;94.50
44695;DHT22;32845;59.422;17.930;2023-04-16T22:37:54;2.70;94.60
44695;DHT22;32845;59.422;17.930;2023-04-16T22:42:26;2.70;94.90
44695;DHT22;32845;59.422;17.930;2023-04-16T22:46:56;2.70;95.10
44695;DHT22;32845;59.422;17.930;2023-04-16T22:51:27;2.70;94.80
44695;DHT22;32845;59.422;17.930;2023-04-16T22:55:58;2.60;95.00
44695;DHT22;32845;59.422;17.930;2023-04-16T23:00:29;2.50;95.50
44695;DHT22;32845;59.422;17.930;2023-04-16T23:05:00;2.40;95.90
44695;DHT22;32845;59.422;17.930;2023-04-16T23:09:31;2.30;96.40
44695;DHT22;32845;59.422;17.930;2023-04-16T23:14:02;2.20;96.70
44695;DHT22;32845;59.422;17.930;2023-04-16T23:18:34;2.20;97.40
44695;DHT22;32845;59.422;17.930;2023-04-16T23:23:06;2.10;97.70
44695;DHT22;32845;59.422;17.930;2023-04-16T23:27:36;2.10;97.70
44695;DHT22;32845;59.422;17.930;2023-04-16T23:32:07;2.10;98.10
44695;DHT22;32845;59.422;17.930;2023-04-16T23:36:38;2.00;98.10
44695;DHT22;32845;59.422;17.930;2023-04-16T23:41:10;1.80;98.00
44695;DHT22;32845;59.422;17.930;2023-04-16T23:45:40;1.60;99.00
44695;DHT22;32845;59.422;17.930;2023-04-16T23:50:11;1.40;99.90
44695;DHT22;32845;59.422;17.930;2023-04-16T23:54:42;1.40;99.90
44695;DHT22;32845;59.422;17.930;2023-04-16T23:59:12;1.40;99.90
